createdAt,value
2023-02-11T00:02:01.515Z,25.88
2023-02-11T00:05:05.564Z,24.00
2023-02-11T00:08:08.756Z,20.33
2023-02-11T00:11:17.616Z,18.70
2023-02-11T00:14:20.951Z,19.73
2023-02-11T00:17:24.224Z,20.58
2023-02-11T00:20:27.283Z,20.30
2023-02-11T00:23:31.332Z,19.90
2023-02-11T00:26:36.030Z,21.12
2023-02-11T00:29:39.706Z,19.98
2023-02-11T00:32:42.823Z,23.98
2023-02-11T00:35:47.545Z,22.85
2023-02-11T00:38:53.464Z,20.98
2023-02-11T00:41:59.130Z,18.67
2023-02-11T00:45:04.658Z,20.05
2023-02-11T00:48:08.132Z,19.92
2023-02-11T00:51:12.092Z,19.60
2023-02-11T00:54:15.631Z,21.52
2023-02-11T00:57:19.391Z,21.10
2023-02-11T01:00:22.953Z,19.87
2023-02-11T01:03:26.421Z,17.85
2023-02-11T01:06:31.222Z,20.65
2023-02-11T01:09:34.336Z,19.80
2023-02-11T01:12:38.114Z,19.70
2023-02-11T01:15:41.508Z,18.90
2023-02-11T01:18:44.992Z,18.77
2023-02-11T01:21:48.261Z,18.45
2023-02-11T01:24:51.793Z,18.90
2023-02-11T01:27:55.023Z,20.40
2023-02-11T01:30:58.884Z,19.52
2023-02-11T01:34:03.596Z,18.67
2023-02-11T01:37:07.356Z,16.62
2023-02-11T01:40:16.939Z,18.12
2023-02-11T01:43:21.845Z,18.20
2023-02-11T01:46:36.621Z,18.92
2023-02-11T01:49:46.650Z,18.00
2023-02-11T01:52:49.892Z,17.62
2023-02-11T08:06:41.905Z,15.70
2023-02-11T08:09:45.702Z,55.08
2023-02-11T08:12:48.856Z,49.97
2023-02-11T08:15:52.585Z,56.28
2023-02-11T08:18:57.812Z,40.95
2023-02-11T08:25:04.823Z,45.08
2023-02-11T08:28:09.429Z,43.13
2023-02-11T08:31:16.803Z,23.87
2023-02-11T08:34:20.291Z,18.10
2023-02-11T08:37:24.753Z,18.33
2023-02-11T08:40:29.688Z,19.20
2023-02-11T08:43:33.571Z,24.33
2023-02-11T08:46:37.551Z,17.70
2023-02-11T08:49:42.516Z,20.92
2023-02-11T08:52:45.879Z,19.30
2023-02-11T08:55:53.449Z,16.80
2023-02-11T08:58:56.981Z,20.30
2023-02-11T09:02:00.213Z,19.60
2023-02-11T09:05:03.807Z,20.52
2023-02-11T09:08:07.007Z,23.58
2023-02-11T09:11:11.276Z,23.42
2023-02-11T09:14:20.593Z,20.33
2023-02-11T11:08:52.897Z,17.90
2023-02-11T11:20:29.502Z,22.30
2023-02-11T11:23:32.434Z,21.98
2023-02-11T11:26:44.876Z,21.65
2023-02-11T11:29:53.688Z,22.85
2023-02-11T11:32:56.909Z,22.35
2023-02-11T11:36:04.864Z,22.67
2023-02-11T11:39:24.647Z,22.08
2023-02-11T11:42:33.414Z,22.33
2023-02-11T11:45:36.467Z,22.33
2023-02-11T11:48:41.641Z,22.75
2023-02-11T11:51:51.506Z,23.77
2023-02-11T11:55:00.601Z,20.17
2023-02-11T11:58:04.872Z,16.85
2023-02-11T12:01:13.250Z,15.80
2023-02-11T12:04:41.865Z,18.60
2023-02-11T12:08:03.426Z,14.35
2023-02-11T12:11:21.694Z,15.85
2023-02-11T12:14:43.276Z,14.85
2023-02-11T12:18:01.902Z,17.40
2023-02-11T12:21:17.555Z,17.20
2023-02-11T12:24:37.187Z,15.93
2023-02-11T12:27:54.625Z,15.25
2023-02-11T12:31:04.954Z,16.42
2023-02-11T12:34:17.408Z,16.00
2023-02-11T12:37:42.840Z,15.98
2023-02-11T12:41:10.336Z,15.23
2023-02-11T12:44:52.333Z,15.68
2023-02-11T12:48:07.514Z,16.67
2023-02-11T12:51:35.979Z,17.90
2023-02-11T12:54:53.394Z,14.13
2023-02-11T12:57:59.918Z,13.38
2023-02-11T13:01:15.394Z,12.98
2023-02-11T13:04:47.762Z,13.38
2023-02-11T13:07:52.136Z,11.68
2023-02-11T13:10:58.229Z,12.13
2023-02-11T13:14:14.716Z,11.27
2023-02-11T13:17:26.540Z,13.50
2023-02-11T13:20:29.613Z,12.77
2023-02-11T13:23:51.140Z,12.13
2023-02-11T13:27:33.388Z,13.20
2023-02-11T13:30:41.464Z,13.62
2023-02-11T13:33:46.284Z,13.20
2023-02-11T13:36:57.308Z,13.52
2023-02-11T13:40:01.326Z,14.18
2023-02-11T13:43:06.927Z,13.07
2023-02-11T13:46:12.924Z,13.27
2023-02-11T13:49:21.001Z,14.32
2023-02-11T13:52:32.687Z,10.43
2023-02-11T13:55:36.513Z,13.30
2023-02-11T13:58:50.225Z,14.18
2023-02-11T14:02:11.992Z,14.48
2023-02-11T14:05:34.259Z,14.48
2023-02-11T14:09:11.286Z,13.02
2023-02-11T14:12:31.549Z,13.52
2023-02-11T14:15:41.695Z,12.48
2023-02-11T14:18:50.113Z,13.30
2023-02-11T14:21:52.950Z,14.30
2023-02-11T14:25:01.220Z,10.27
2023-02-11T14:28:13.598Z,11.12
2023-02-11T14:31:44.019Z,13.20
2023-02-11T14:35:15.890Z,14.77
2023-02-11T14:38:43.569Z,14.40
2023-02-11T14:41:49.580Z,15.20
2023-02-11T14:44:57.121Z,15.52
2023-02-11T14:48:17.434Z,15.23
2023-02-11T14:51:27.659Z,14.43
2023-02-11T14:54:32.560Z,13.05
2023-02-11T14:57:38.079Z,15.77
2023-02-11T15:00:53.918Z,9.77
2023-02-11T15:03:59.847Z,12.07
2023-02-11T15:07:08.122Z,14.52
2023-02-11T15:10:23.645Z,14.57
2023-02-11T15:13:31.211Z,14.27
2023-02-11T15:16:35.706Z,14.87
2023-02-11T15:19:41.840Z,15.00
2023-02-11T15:22:46.786Z,13.23
2023-02-11T15:25:56.497Z,13.60
2023-02-11T15:29:02.164Z,15.48
2023-02-11T15:32:09.761Z,16.05
2023-02-11T15:35:15.113Z,14.43
2023-02-11T15:38:19.067Z,15.45
2023-02-11T15:41:36.622Z,14.05
2023-02-11T15:44:40.488Z,15.50
2023-02-11T15:47:51.453Z,14.85
2023-02-11T15:51:02.737Z,16.08
2023-02-11T15:54:22.368Z,15.13
2023-02-11T15:57:28.065Z,14.73
2023-02-11T16:00:36.996Z,14.57
2023-02-11T16:03:43.068Z,15.27
2023-02-11T16:06:48.397Z,14.10
2023-02-11T16:09:58.096Z,11.85
2023-02-11T16:13:08.401Z,14.40
2023-02-11T16:16:20.718Z,16.27
2023-02-11T16:19:27.421Z,14.23
2023-02-11T16:22:35.961Z,15.57
2023-02-11T16:25:44.522Z,14.35
2023-02-11T16:28:50.809Z,15.35
2023-02-11T16:32:06.229Z,15.85
2023-02-11T16:35:12.158Z,16.75
2023-02-11T16:38:17.845Z,16.30
2023-02-11T16:41:22.656Z,18.40
2023-02-11T16:44:27.211Z,15.82
2023-02-11T16:47:32.040Z,15.70
2023-02-11T16:50:37.694Z,15.35
2023-02-11T16:53:41.585Z,15.60
2023-02-11T16:56:45.509Z,16.62
2023-02-11T16:59:50.735Z,17.10
2023-02-11T17:02:56.243Z,15.05
2023-02-11T17:06:05.412Z,17.70
2023-02-11T17:09:21.189Z,14.75
2023-02-11T17:12:25.675Z,16.98
2023-02-11T17:15:30.518Z,14.65
2023-02-11T17:18:34.687Z,14.05
2023-02-11T17:21:38.507Z,13.70
2023-02-11T17:24:43.112Z,16.17
2023-02-11T17:27:47.229Z,15.23
2023-02-11T17:30:54.882Z,15.40
2023-02-11T17:33:58.816Z,16.15
2023-02-11T17:37:09.538Z,13.97
2023-02-11T17:40:15.029Z,15.75
2023-02-11T17:43:21.175Z,16.50
2023-02-11T17:46:25.380Z,16.15
2023-02-11T17:49:30.334Z,17.87
2023-02-11T17:52:34.376Z,14.82
2023-02-11T17:55:39.141Z,14.60
2023-02-11T17:58:43.396Z,16.83
2023-02-11T18:01:47.687Z,16.45
2023-02-11T18:04:56.056Z,17.58
2023-02-11T18:08:01.069Z,18.37
2023-02-11T18:11:11.999Z,17.60
2023-02-11T18:14:21.564Z,16.83
2023-02-11T18:17:26.709Z,17.12
2023-02-11T18:20:32.692Z,18.02
2023-02-11T18:23:37.264Z,18.00
2023-02-11T18:26:42.297Z,15.75
2023-02-11T18:29:46.522Z,17.20
2023-02-11T18:32:56.325Z,16.90
2023-02-11T18:36:02.869Z,16.45
2023-02-11T18:39:07.218Z,16.12
2023-02-11T18:42:13.247Z,16.77
2023-02-11T18:45:17.497Z,18.75
2023-02-11T18:48:22.877Z,17.23
2023-02-11T18:51:27.767Z,17.57
2023-02-11T18:54:35.837Z,19.07
2023-02-11T18:57:41.809Z,20.17
2023-02-11T19:00:48.284Z,19.83
2023-02-11T19:03:55.751Z,17.77
2023-02-11T19:07:06.055Z,18.00
2023-02-11T19:10:10.824Z,17.73
2023-02-11T19:16:20.355Z,16.83
2023-02-11T19:19:26.456Z,16.80
2023-02-11T19:22:30.636Z,18.33
2023-02-11T19:25:37.809Z,18.23
2023-02-11T19:28:42.249Z,16.80
2023-02-11T19:31:47.076Z,17.85
2023-02-11T19:34:52.913Z,16.33
2023-02-11T19:37:57.850Z,16.05
2023-02-11T19:41:01.954Z,15.38
2023-02-11T19:44:10.169Z,14.93
2023-02-11T19:47:16.583Z,14.85
2023-02-11T19:50:21.092Z,16.05
2023-02-11T19:53:25.717Z,15.82
2023-02-11T19:56:30.598Z,15.60
2023-02-11T19:59:34.585Z,14.57
2023-02-11T20:02:41.029Z,15.70
2023-02-11T20:05:48.962Z,14.43
2023-02-11T20:09:01.542Z,14.50
2023-02-11T20:12:05.454Z,13.43
2023-02-11T20:15:10.344Z,15.07
2023-02-11T20:21:27.420Z,13.65
2023-02-11T20:24:34.171Z,14.40
2023-02-11T20:27:39.419Z,14.27
2023-02-11T20:33:51.618Z,12.98
2023-02-11T20:36:59.655Z,13.62
2023-02-11T20:43:08.529Z,12.37
2023-02-11T20:46:17.874Z,12.93
2023-02-11T20:49:24.891Z,13.62
2023-02-11T20:52:29.497Z,12.45
2023-02-11T20:55:39.600Z,13.17
2023-02-11T20:58:43.765Z,13.48
2023-02-11T21:01:51.145Z,12.50
2023-02-11T21:04:55.487Z,12.40
2023-02-11T21:08:00.249Z,13.90
2023-02-11T21:11:04.441Z,13.00
2023-02-11T21:14:12.668Z,13.10
2023-02-11T21:17:16.418Z,13.45
2023-02-11T21:20:24.269Z,13.32
2023-02-11T21:23:29.573Z,14.35
2023-02-11T21:26:36.044Z,12.73
2023-02-11T21:29:52.622Z,13.00
2023-02-11T21:33:03.333Z,12.30
2023-02-11T21:36:08.566Z,12.10
2023-02-11T21:39:19.458Z,13.52
2023-02-11T21:42:24.507Z,12.35
2023-02-11T21:45:30.214Z,11.73
2023-02-11T21:48:35.610Z,12.13
2023-02-11T21:51:39.894Z,12.32
2023-02-11T21:54:42.892Z,11.77
2023-02-11T21:57:47.132Z,11.98
2023-02-11T22:00:50.802Z,11.35
2023-02-11T22:03:54.986Z,11.95
2023-02-11T22:06:58.601Z,12.15
2023-02-11T22:10:03.895Z,11.93
2023-02-11T22:13:07.457Z,11.85
2023-02-11T22:16:15.317Z,12.37
2023-02-11T22:19:19.059Z,11.98
2023-02-11T22:22:22.654Z,11.57
2023-02-11T22:25:25.748Z,12.60
2023-02-11T22:28:30.195Z,11.68
2023-02-11T22:31:34.900Z,11.35
2023-02-11T22:34:38.136Z,12.00
2023-02-11T22:37:41.871Z,11.50
2023-02-11T22:40:45.034Z,11.23
2023-02-11T22:43:48.784Z,11.65
2023-02-11T22:46:52.830Z,11.30
2023-02-11T22:49:56.933Z,10.68
2023-02-11T22:53:00.375Z,11.00
2023-02-11T22:56:08.583Z,11.10
2023-02-11T22:59:14.198Z,12.80
